sensor_id;sensor_type;location;lat;lon;timestamp;P1;durP1;ratioP1;P2;durP2;ratioP2
209;SDS011;90;48.810;9.120;2023-04-28T00:00:31;12.30;;;7.17;;
209;SDS011;90;48.810;9.120;2023-04-28T00:02:57;8.87;;;6.40;;
209;SDS011;90;48.810;9.120;2023-04-28T00:05:24;10.37;;;6.27;;
209;SDS011;90;48.810;9.120;2023-04-28T00:07:52;8.97;;;6.40;;
209;SDS011;90;48.810;9.120;2023-04-28T00:10:19;8.03;;;6.37;;
209;SDS011;90;48.810;9.120;2023-04-28T00:12:46;9.77;;;6.70;;
209;SDS011;90;48.810;9.120;2023-04-28T00:15:12;11.27;;;6.30;;
209;SDS011;90;48.810;9.120;2023-04-28T00:17:40;9.10;;;6.67;;
209;SDS011;90;48.810;9.120;2023-04-28T00:20:07;7.50;;;6.20;;
209;SDS011;90;48.810;9.120;2023-04-28T00:22:35;9.03;;;6.43;;
209;SDS011;90;48.810;9.120;2023-04-28T00:25:04;7.73;;;5.60;;
209;SDS011;90;48.810;9.120;2023-04-28T00:27:31;8.50;;;6.10;;
209;SDS011;90;48.810;9.120;2023-04-28T00:29:58;10.20;;;6.30;;
209;SDS011;90;48.810;9.120;2023-04-28T00:32:24;17.20;;;7.50;;
209;SDS011;90;48.810;9.120;2023-04-28T00:34:51;8.10;;;6.57;;
209;SDS011;90;48.810;9.120;2023-04-28T00:37:18;9.20;;;6.30;;
209;SDS011;90;48.810;9.120;2023-04-28T00:39:45;7.47;;;6.03;;
209;SDS011;90;48.810;9.120;2023-04-28T00:42:13;8.83;;;5.90;;
209;SDS011;90;48.810;9.120;2023-04-28T00:44:40;7.97;;;5.70;;
209;SDS011;90;48.810;9.120;2023-04-28T00:47:07;7.20;;;5.50;;
209;SDS011;90;48.810;9.120;2023-04-28T00:49:34;9.90;;;6.03;;
209;SDS011;90;48.810;9.120;2023-04-28T00:52:02;8.03;;;5.63;;
209;SDS011;90;48.810;9.120;2023-04-28T00:54:31;9.53;;;6.10;;
209;SDS011;90;48.810;9.120;2023-04-28T00:56:58;8.80;;;5.60;;
209;SDS011;90;48.810;9.120;2023-04-28T00:59:28;6.00;;;5.70;;
209;SDS011;90;48.810;9.120;2023-04-28T01:01:55;10.37;;;6.77;;
209;SDS011;90;48.810;9.120;2023-04-28T01:04:22;11.47;;;6.83;;
209;SDS011;90;48.810;9.120;2023-04-28T01:06:50;7.70;;;6.47;;
209;SDS011;90;48.810;9.120;2023-04-28T01:09:18;8.40;;;6.40;;
209;SDS011;90;48.810;9.120;2023-04-28T01:11:45;10.33;;;6.70;;
209;SDS011;90;48.810;9.120;2023-04-28T01:14:12;6.77;;;5.90;;
209;SDS011;90;48.810;9.120;2023-04-28T01:16:40;7.30;;;5.80;;
209;SDS011;90;48.810;9.120;2023-04-28T01:19:07;8.77;;;6.13;;
209;SDS011;90;48.810;9.120;2023-04-28T01:21:41;8.20;;;5.87;;
209;SDS011;90;48.810;9.120;2023-04-28T01:24:09;11.80;;;6.63;;
209;SDS011;90;48.810;9.120;2023-04-28T01:26:36;10.60;;;6.90;;
209;SDS011;90;48.810;9.120;2023-04-28T01:29:02;9.63;;;6.15;;
209;SDS011;90;48.810;9.120;2023-04-28T01:31:29;9.80;;;6.30;;
209;SDS011;90;48.810;9.120;2023-04-28T01:33:56;8.00;;;6.30;;
209;SDS011;90;48.810;9.120;2023-04-28T01:36:22;8.77;;;6.50;;
209;SDS011;90;48.810;9.120;2023-04-28T01:38:51;11.80;;;6.97;;
209;SDS011;90;48.810;9.120;2023-04-28T01:41:19;8.80;;;6.00;;
209;SDS011;90;48.810;9.120;2023-04-28T01:43:46;8.70;;;6.13;;
209;SDS011;90;48.810;9.120;2023-04-28T01:46:13;10.07;;;6.87;;
209;SDS011;90;48.810;9.120;2023-04-28T01:48:39;8.83;;;6.47;;
209;SDS011;90;48.810;9.120;2023-04-28T01:51:06;7.80;;;6.13;;
209;SDS011;90;48.810;9.120;2023-04-28T01:53:33;10.17;;;5.90;;
209;SDS011;90;48.810;9.120;2023-04-28T01:55:59;9.77;;;6.10;;
209;SDS011;90;48.810;9.120;2023-04-28T01:58:27;10.40;;;6.73;;
209;SDS011;90;48.810;9.120;2023-04-28T02:00:54;10.43;;;6.60;;
209;SDS011;90;48.810;9.120;2023-04-28T02:03:21;8.23;;;6.47;;
209;SDS011;90;48.810;9.120;2023-04-28T02:05:48;8.83;;;6.43;;
209;SDS011;90;48.810;9.120;2023-04-28T02:08:15;7.40;;;5.90;;
209;SDS011;90;48.810;9.120;2023-04-28T02:10:42;12.23;;;6.53;;
209;SDS011;90;48.810;9.120;2023-04-28T02:13:09;8.37;;;6.20;;
209;SDS011;90;48.810;9.120;2023-04-28T02:15:39;9.30;;;6.40;;
209;SDS011;90;48.810;9.120;2023-04-28T02:18:06;9.57;;;5.70;;
209;SDS011;90;48.810;9.120;2023-04-28T02:20:33;8.40;;;5.87;;
209;SDS011;90;48.810;9.120;2023-04-28T02:22:59;11.40;;;6.23;;
209;SDS011;90;48.810;9.120;2023-04-28T02:25:26;7.73;;;5.53;;
209;SDS011;90;48.810;9.120;2023-04-28T02:27:53;8.13;;;6.20;;
209;SDS011;90;48.810;9.120;2023-04-28T02:30:20;7.53;;;5.60;;
209;SDS011;90;48.810;9.120;2023-04-28T02:32:48;6.17;;;5.83;;
209;SDS011;90;48.810;9.120;2023-04-28T02:35:16;7.93;;;5.60;;
209;SDS011;90;48.810;9.120;2023-04-28T02:37:42;5.97;;;5.37;;
209;SDS011;90;48.810;9.120;2023-04-28T02:40:10;7.57;;;6.00;;
209;SDS011;90;48.810;9.120;2023-04-28T02:42:38;8.53;;;5.57;;
209;SDS011;90;48.810;9.120;2023-04-28T02:45:05;9.97;;;5.77;;
209;SDS011;90;48.810;9.120;2023-04-28T02:47:32;9.93;;;5.87;;
209;SDS011;90;48.810;9.120;2023-04-28T02:50:00;6.93;;;5.40;;
209;SDS011;90;48.810;9.120;2023-04-28T02:52:27;7.78;;;5.47;;
209;SDS011;90;48.810;9.120;2023-04-28T02:54:53;9.30;;;6.20;;
209;SDS011;90;48.810;9.120;2023-04-28T02:57:21;6.03;;;5.33;;
209;SDS011;90;48.810;9.120;2023-04-28T02:59:49;6.80;;;4.83;;
209;SDS011;90;48.810;9.120;2023-04-28T03:02:15;9.77;;;5.40;;
209;SDS011;90;48.810;9.120;2023-04-28T03:04:44;7.00;;;5.50;;
209;SDS011;90;48.810;9.120;2023-04-28T03:07:12;8.37;;;5.10;;
209;SDS011;90;48.810;9.120;2023-04-28T03:09:39;5.57;;;5.10;;
209;SDS011;90;48.810;9.120;2023-04-28T03:12:06;6.53;;;5.83;;
209;SDS011;90;48.810;9.120;2023-04-28T03:14:32;6.70;;;5.60;;
209;SDS011;90;48.810;9.120;2023-04-28T03:16:59;7.70;;;5.73;;
209;SDS011;90;48.810;9.120;2023-04-28T03:19:26;8.60;;;6.47;;
209;SDS011;90;48.810;9.120;2023-04-28T03:21:52;8.10;;;6.73;;
209;SDS011;90;48.810;9.120;2023-04-28T03:24:21;8.10;;;5.50;;
209;SDS011;90;48.810;9.120;2023-04-28T03:26:47;7.00;;;5.90;;
209;SDS011;90;48.810;9.120;2023-04-28T03:29:14;11.53;;;6.20;;
209;SDS011;90;48.810;9.120;2023-04-28T03:31:41;14.23;;;6.20;;
209;SDS011;90;48.810;9.120;2023-04-28T03:34:08;14.83;;;6.70;;
209;SDS011;90;48.810;9.120;2023-04-28T03:36:34;6.57;;;5.80;;
209;SDS011;90;48.810;9.120;2023-04-28T03:39:01;6.10;;;5.50;;
209;SDS011;90;48.810;9.120;2023-04-28T03:41:29;9.13;;;5.70;;
209;SDS011;90;48.810;9.120;2023-04-28T03:43:56;6.67;;;5.43;;
209;SDS011;90;48.810;9.120;2023-04-28T03:46:23;9.47;;;5.00;;
209;SDS011;90;48.810;9.120;2023-04-28T03:48:49;13.40;;;6.70;;
209;SDS011;90;48.810;9.120;2023-04-28T03:51:17;8.83;;;5.80;;
209;SDS011;90;48.810;9.120;2023-04-28T03:53:44;7.87;;;5.67;;
209;SDS011;90;48.810;9.120;2023-04-28T03:56:10;8.13;;;6.00;;
209;SDS011;90;48.810;9.120;2023-04-28T03:58:38;6.67;;;5.50;;
209;SDS011;90;48.810;9.120;2023-04-28T04:01:05;8.83;;;5.90;;
209;SDS011;90;48.810;9.120;2023-04-28T04:03:32;6.50;;;6.10;;
209;SDS011;90;48.810;9.120;2023-04-28T04:05:58;11.10;;;7.67;;
209;SDS011;90;48.810;9.120;2023-04-28T04:08:25;13.47;;;7.60;;
209;SDS011;90;48.810;9.120;2023-04-28T04:10:52;7.93;;;7.17;;
209;SDS011;90;48.810;9.120;2023-04-28T04:13:19;9.93;;;7.37;;
209;SDS011;90;48.810;9.120;2023-04-28T04:15:48;11.47;;;6.97;;
209;SDS011;90;48.810;9.120;2023-04-28T04:18:16;14.53;;;6.60;;
209;SDS011;90;48.810;9.120;2023-04-28T04:20:43;7.80;;;6.43;;
209;SDS011;90;48.810;9.120;2023-04-28T04:23:10;13.73;;;6.60;;
209;SDS011;90;48.810;9.120;2023-04-28T04:25:36;7.77;;;5.90;;
209;SDS011;90;48.810;9.120;2023-04-28T04:28:03;7.87;;;6.17;;
209;SDS011;90;48.810;9.120;2023-04-28T04:30:30;8.50;;;6.10;;
209;SDS011;90;48.810;9.120;2023-04-28T04:32:58;6.53;;;6.07;;
209;SDS011;90;48.810;9.120;2023-04-28T04:35:25;9.10;;;6.30;;
209;SDS011;90;48.810;9.120;2023-04-28T04:37:52;9.10;;;6.50;;
209;SDS011;90;48.810;9.120;2023-04-28T04:40:18;6.90;;;5.80;;
209;SDS011;90;48.810;9.120;2023-04-28T04:42:45;7.40;;;6.23;;
209;SDS011;90;48.810;9.120;2023-04-28T04:45:12;6.83;;;5.70;;
209;SDS011;90;48.810;9.120;2023-04-28T04:47:38;8.13;;;5.80;;
209;SDS011;90;48.810;9.120;2023-04-28T04:50:07;9.33;;;6.17;;
209;SDS011;90;48.810;9.120;2023-04-28T04:52:36;7.23;;;5.73;;
209;SDS011;90;48.810;9.120;2023-04-28T04:55:03;7.00;;;5.70;;
209;SDS011;90;48.810;9.120;2023-04-28T04:57:31;10.90;;;6.10;;
209;SDS011;90;48.810;9.120;2023-04-28T04:59:57;9.43;;;5.87;;
209;SDS011;90;48.810;9.120;2023-04-28T05:02:24;7.87;;;6.27;;
209;SDS011;90;48.810;9.120;2023-04-28T05:04:51;8.13;;;6.30;;
209;SDS011;90;48.810;9.120;2023-04-28T05:07:19;7.87;;;6.60;;
209;SDS011;90;48.810;9.120;2023-04-28T05:09:46;7.90;;;6.27;;
209;SDS011;90;48.810;9.120;2023-04-28T05:12:12;7.80;;;6.27;;
209;SDS011;90;48.810;9.120;2023-04-28T05:14:39;7.87;;;6.13;;
209;SDS011;90;48.810;9.120;2023-04-28T05:17:06;6.45;;;5.55;;
209;SDS011;90;48.810;9.120;2023-04-28T05:19:32;6.80;;;5.40;;
209;SDS011;90;48.810;9.120;2023-04-28T05:22:00;5.07;;;4.77;;
209;SDS011;90;48.810;9.120;2023-04-28T05:24:28;7.57;;;4.83;;
209;SDS011;90;48.810;9.120;2023-04-28T05:26:55;7.03;;;5.00;;
209;SDS011;90;48.810;9.120;2023-04-28T05:29:24;5.73;;;4.77;;
209;SDS011;90;48.810;9.120;2023-04-28T05:31:51;6.57;;;5.10;;
209;SDS011;90;48.810;9.120;2023-04-28T05:34:17;7.70;;;5.43;;
209;SDS011;90;48.810;9.120;2023-04-28T05:36:44;5.23;;;4.90;;
209;SDS011;90;48.810;9.120;2023-04-28T05:39:11;5.27;;;4.07;;
209;SDS011;90;48.810;9.120;2023-04-28T05:41:39;5.60;;;4.60;;
209;SDS011;90;48.810;9.120;2023-04-28T05:44:06;8.10;;;4.70;;
209;SDS011;90;48.810;9.120;2023-04-28T05:46:33;6.90;;;5.70;;
209;SDS011;90;48.810;9.120;2023-04-28T05:49:00;7.50;;;5.37;;
209;SDS011;90;48.810;9.120;2023-04-28T05:51:27;5.70;;;5.40;;
209;SDS011;90;48.810;9.120;2023-04-28T05:53:54;5.50;;;5.20;;
209;SDS011;90;48.810;9.120;2023-04-28T05:56:22;9.40;;;5.57;;
209;SDS011;90;48.810;9.120;2023-04-28T05:58:53;7.43;;;5.77;;
209;SDS011;90;48.810;9.120;2023-04-28T06:01:20;9.63;;;5.20;;
209;SDS011;90;48.810;9.120;2023-04-28T06:03:47;7.13;;;5.13;;
209;SDS011;90;48.810;9.120;2023-04-28T06:06:14;7.57;;;5.60;;
209;SDS011;90;48.810;9.120;2023-04-28T06:08:41;8.00;;;5.37;;
209;SDS011;90;48.810;9.120;2023-04-28T06:11:08;7.23;;;5.57;;
209;SDS011;90;48.810;9.120;2023-04-28T06:13:35;10.47;;;5.80;;
209;SDS011;90;48.810;9.120;2023-04-28T06:16:04;8.73;;;5.53;;
209;SDS011;90;48.810;9.120;2023-04-28T06:18:31;7.60;;;5.80;;
209;SDS011;90;48.810;9.120;2023-04-28T06:20:58;10.03;;;5.40;;
209;SDS011;90;48.810;9.120;2023-04-28T06:23:25;6.00;;;5.30;;
209;SDS011;90;48.810;9.120;2023-04-28T06:25:52;8.50;;;5.63;;
209;SDS011;90;48.810;9.120;2023-04-28T06:28:18;9.20;;;6.10;;
209;SDS011;90;48.810;9.120;2023-04-28T06:30:45;9.40;;;5.40;;
209;SDS011;90;48.810;9.120;2023-04-28T06:33:13;5.70;;;5.40;;
209;SDS011;90;48.810;9.120;2023-04-28T06:35:40;9.03;;;5.60;;
209;SDS011;90;48.810;9.120;2023-04-28T06:38:07;6.30;;;4.90;;
209;SDS011;90;48.810;9.120;2023-04-28T06:40:33;9.03;;;5.20;;
209;SDS011;90;48.810;9.120;2023-04-28T06:43:00;7.57;;;5.30;;
209;SDS011;90;48.810;9.120;2023-04-28T06:45:27;8.83;;;5.20;;
209;SDS011;90;48.810;9.120;2023-04-28T06:47:53;6.23;;;5.20;;
209;SDS011;90;48.810;9.120;2023-04-28T06:50:22;7.57;;;5.70;;
209;SDS011;90;48.810;9.120;2023-04-28T06:52:49;8.23;;;5.60;;
209;SDS011;90;48.810;9.120;2023-04-28T06:55:16;5.27;;;4.97;;
209;SDS011;90;48.810;9.120;2023-04-28T06:57:43;11.07;;;5.73;;
209;SDS011;90;48.810;9.120;2023-04-28T07:00:10;7.47;;;6.30;;
209;SDS011;90;48.810;9.120;2023-04-28T07:02:38;9.50;;;6.23;;
209;SDS011;90;48.810;9.120;2023-04-28T07:05:05;9.50;;;6.63;;
209;SDS011;90;48.810;9.120;2023-04-28T07:07:34;8.40;;;6.30;;
209;SDS011;90;48.810;9.120;2023-04-28T07:10:03;8.33;;;6.10;;
209;SDS011;90;48.810;9.120;2023-04-28T07:12:31;9.73;;;7.70;;
209;SDS011;90;48.810;9.120;2023-04-28T07:14:57;10.20;;;7.40;;
209;SDS011;90;48.810;9.120;2023-04-28T07:17:24;10.53;;;7.27;;
209;SDS011;90;48.810;9.120;2023-04-28T07:19:51;7.27;;;6.17;;
209;SDS011;90;48.810;9.120;2023-04-28T07:22:18;8.67;;;6.30;;
209;SDS011;90;48.810;9.120;2023-04-28T07:24:46;12.27;;;7.17;;
209;SDS011;90;48.810;9.120;2023-04-28T07:27:13;8.47;;;6.97;;
209;SDS011;90;48.810;9.120;2023-04-28T07:29:40;13.93;;;7.07;;
209;SDS011;90;48.810;9.120;2023-04-28T07:32:07;7.15;;;5.88;;
209;SDS011;90;48.810;9.120;2023-04-28T07:34:34;7.10;;;5.77;;
209;SDS011;90;48.810;9.120;2023-04-28T07:37:01;8.93;;;6.70;;
209;SDS011;90;48.810;9.120;2023-04-28T07:39:29;9.57;;;6.63;;
209;SDS011;90;48.810;9.120;2023-04-28T07:41:59;9.98;;;6.50;;
209;SDS011;90;48.810;9.120;2023-04-28T07:44:26;5.27;;;4.77;;
209;SDS011;90;48.810;9.120;2023-04-28T07:46:53;5.67;;;5.40;;
209;SDS011;90;48.810;9.120;2023-04-28T07:49:20;8.90;;;6.60;;
209;SDS011;90;48.810;9.120;2023-04-28T07:51:47;7.83;;;6.43;;
209;SDS011;90;48.810;9.120;2023-04-28T07:54:17;7.30;;;5.40;;
209;SDS011;90;48.810;9.120;2023-04-28T07:56:44;5.53;;;5.20;;
209;SDS011;90;48.810;9.120;2023-04-28T07:59:12;4.83;;;4.53;;
209;SDS011;90;48.810;9.120;2023-04-28T08:01:39;5.60;;;4.47;;
209;SDS011;90;48.810;9.120;2023-04-28T08:04:07;7.63;;;4.87;;
209;SDS011;90;48.810;9.120;2023-04-28T08:06:33;6.07;;;4.90;;
209;SDS011;90;48.810;9.120;2023-04-28T08:09:01;5.70;;;4.53;;
209;SDS011;90;48.810;9.120;2023-04-28T08:11:28;5.00;;;4.70;;
209;SDS011;90;48.810;9.120;2023-04-28T08:13:55;6.70;;;5.03;;
209;SDS011;90;48.810;9.120;2023-04-28T08:16:26;7.47;;;4.97;;
209;SDS011;90;48.810;9.120;2023-04-28T08:18:53;9.43;;;5.30;;
209;SDS011;90;48.810;9.120;2023-04-28T08:21:20;5.43;;;5.00;;
209;SDS011;90;48.810;9.120;2023-04-28T08:23:47;6.50;;;4.87;;
209;SDS011;90;48.810;9.120;2023-04-28T08:26:13;7.80;;;6.60;;
209;SDS011;90;48.810;9.120;2023-04-28T08:28:40;13.20;;;8.80;;
209;SDS011;90;48.810;9.120;2023-04-28T08:31:07;13.83;;;9.47;;
209;SDS011;90;48.810;9.120;2023-04-28T08:33:35;18.07;;;10.57;;
209;SDS011;90;48.810;9.120;2023-04-28T08:36:02;11.40;;;8.90;;
209;SDS011;90;48.810;9.120;2023-04-28T08:38:30;12.93;;;10.27;;
209;SDS011;90;48.810;9.120;2023-04-28T08:40:57;11.80;;;9.00;;
209;SDS011;90;48.810;9.120;2023-04-28T08:43:24;11.40;;;8.57;;
209;SDS011;90;48.810;9.120;2023-04-28T08:45:52;15.80;;;9.97;;
209;SDS011;90;48.810;9.120;2023-04-28T08:48:20;15.30;;;10.60;;
209;SDS011;90;48.810;9.120;2023-04-28T08:50:49;16.03;;;10.47;;
209;SDS011;90;48.810;9.120;2023-04-28T08:53:20;14.17;;;9.80;;
209;SDS011;90;48.810;9.120;2023-04-28T08:55:49;15.17;;;9.67;;
209;SDS011;90;48.810;9.120;2023-04-28T08:58:19;14.90;;;8.23;;
209;SDS011;90;48.810;9.120;2023-04-28T09:00:47;12.80;;;8.70;;
209;SDS011;90;48.810;9.120;2023-04-28T09:03:14;10.90;;;8.00;;
209;SDS011;90;48.810;9.120;2023-04-28T09:05:40;8.87;;;7.23;;
209;SDS011;90;48.810;9.120;2023-04-28T09:08:09;9.87;;;6.93;;
209;SDS011;90;48.810;9.120;2023-04-28T09:10:36;13.03;;;7.67;;
209;SDS011;90;48.810;9.120;2023-04-28T09:13:03;8.40;;;6.23;;
209;SDS011;90;48.810;9.120;2023-04-28T09:15:31;11.50;;;7.67;;
209;SDS011;90;48.810;9.120;2023-04-28T09:17:59;13.83;;;7.97;;
209;SDS011;90;48.810;9.120;2023-04-28T09:20:27;8.10;;;6.93;;
209;SDS011;90;48.810;9.120;2023-04-28T09:22:56;11.00;;;8.17;;
209;SDS011;90;48.810;9.120;2023-04-28T09:25:39;11.03;;;7.00;;
209;SDS011;90;48.810;9.120;2023-04-28T09:28:20;10.37;;;6.90;;
209;SDS011;90;48.810;9.120;2023-04-28T09:30:47;9.40;;;7.10;;
209;SDS011;90;48.810;9.120;2023-04-28T09:33:14;8.50;;;6.80;;
209;SDS011;90;48.810;9.120;2023-04-28T09:35:42;11.50;;;7.30;;
209;SDS011;90;48.810;9.120;2023-04-28T09:38:09;7.63;;;6.50;;
209;SDS011;90;48.810;9.120;2023-04-28T09:40:49;10.07;;;7.77;;
209;SDS011;90;48.810;9.120;2023-04-28T09:43:21;12.20;;;7.73;;
209;SDS011;90;48.810;9.120;2023-04-28T09:45:52;10.00;;;7.93;;
209;SDS011;90;48.810;9.120;2023-04-28T09:48:25;10.70;;;7.10;;
209;SDS011;90;48.810;9.120;2023-04-28T09:50:53;11.00;;;7.20;;
209;SDS011;90;48.810;9.120;2023-04-28T09:53:21;8.43;;;5.67;;
209;SDS011;90;48.810;9.120;2023-04-28T09:55:49;8.00;;;5.37;;
209;SDS011;90;48.810;9.120;2023-04-28T09:58:18;7.60;;;5.70;;
209;SDS011;90;48.810;9.120;2023-04-28T10:00:45;5.80;;;5.30;;
209;SDS011;90;48.810;9.120;2023-04-28T10:03:16;6.60;;;5.83;;
209;SDS011;90;48.810;9.120;2023-04-28T10:05:44;5.65;;;5.40;;
209;SDS011;90;48.810;9.120;2023-04-28T10:08:12;6.17;;;4.90;;
209;SDS011;90;48.810;9.120;2023-04-28T10:10:39;6.00;;;5.70;;
209;SDS011;90;48.810;9.120;2023-04-28T10:13:07;7.57;;;5.43;;
209;SDS011;90;48.810;9.120;2023-04-28T10:15:35;4.50;;;4.23;;
209;SDS011;90;48.810;9.120;2023-04-28T10:18:02;3.90;;;3.70;;
209;SDS011;90;48.810;9.120;2023-04-28T10:20:31;3.87;;;2.80;;
209;SDS011;90;48.810;9.120;2023-04-28T10:23:02;2.90;;;2.70;;
209;SDS011;90;48.810;9.120;2023-04-28T10:25:48;2.43;;;2.23;;
209;SDS011;90;48.810;9.120;2023-04-28T10:28:24;2.73;;;2.53;;
209;SDS011;90;48.810;9.120;2023-04-28T10:31:07;2.57;;;2.40;;
209;SDS011;90;48.810;9.120;2023-04-28T10:33:34;2.87;;;2.17;;
209;SDS011;90;48.810;9.120;2023-04-28T10:36:03;2.50;;;2.30;;
209;SDS011;90;48.810;9.120;2023-04-28T10:38:31;2.80;;;2.37;;
209;SDS011;90;48.810;9.120;2023-04-28T10:40:58;3.27;;;2.87;;
209;SDS011;90;48.810;9.120;2023-04-28T10:43:37;4.80;;;3.20;;
209;SDS011;90;48.810;9.120;2023-04-28T10:46:05;3.17;;;2.97;;
209;SDS011;90;48.810;9.120;2023-04-28T10:48:53;2.50;;;2.30;;
209;SDS011;90;48.810;9.120;2023-04-28T10:51:27;2.30;;;2.00;;
209;SDS011;90;48.810;9.120;2023-04-28T10:54:08;2.50;;;2.00;;
209;SDS011;90;48.810;9.120;2023-04-28T10:59:48;2.97;;;1.97;;
209;SDS011;90;48.810;9.120;2023-04-28T11:02:38;1.90;;;1.60;;
209;SDS011;90;48.810;9.120;2023-04-28T11:05:15;2.13;;;1.67;;
209;SDS011;90;48.810;9.120;2023-04-28T11:13:45;2.20;;;2.00;;
209;SDS011;90;48.810;9.120;2023-04-28T11:16:15;2.80;;;2.10;;
209;SDS011;90;48.810;9.120;2023-04-28T11:18:56;1.80;;;1.60;;
209;SDS011;90;48.810;9.120;2023-04-28T11:21:27;2.77;;;1.77;;
209;SDS011;90;48.810;9.120;2023-04-28T11:23:54;3.50;;;1.57;;
209;SDS011;90;48.810;9.120;2023-04-28T11:26:22;2.10;;;1.70;;
209;SDS011;90;48.810;9.120;2023-04-28T11:28:52;2.20;;;1.63;;
209;SDS011;90;48.810;9.120;2023-04-28T11:31:22;4.10;;;2.23;;
209;SDS011;90;48.810;9.120;2023-04-28T11:33:55;3.50;;;1.80;;
209;SDS011;90;48.810;9.120;2023-04-28T11:36:24;2.40;;;1.83;;
209;SDS011;90;48.810;9.120;2023-04-28T11:38:53;2.00;;;1.93;;
209;SDS011;90;48.810;9.120;2023-04-28T11:41:20;2.37;;;2.10;;
209;SDS011;90;48.810;9.120;2023-04-28T11:43:47;2.20;;;2.00;;
209;SDS011;90;48.810;9.120;2023-04-28T11:46:15;2.30;;;2.10;;
209;SDS011;90;48.810;9.120;2023-04-28T11:48:44;2.20;;;1.80;;
209;SDS011;90;48.810;9.120;2023-04-28T11:53:57;1.90;;;1.80;;
209;SDS011;90;48.810;9.120;2023-04-28T11:56:24;2.23;;;1.80;;
209;SDS011;90;48.810;9.120;2023-04-28T11:59:03;2.33;;;2.13;;
209;SDS011;90;48.810;9.120;2023-04-28T12:01:32;2.50;;;1.90;;
209;SDS011;90;48.810;9.120;2023-04-28T12:04:02;2.30;;;2.10;;
209;SDS011;90;48.810;9.120;2023-04-28T12:06:29;2.33;;;2.13;;
209;SDS011;90;48.810;9.120;2023-04-28T12:08:56;2.20;;;2.00;;
209;SDS011;90;48.810;9.120;2023-04-28T12:11:28;4.27;;;2.00;;
209;SDS011;90;48.810;9.120;2023-04-28T12:14:04;2.45;;;1.95;;
209;SDS011;90;48.810;9.120;2023-04-28T12:16:36;2.07;;;1.90;;
209;SDS011;90;48.810;9.120;2023-04-28T12:19:10;2.00;;;1.87;;
209;SDS011;90;48.810;9.120;2023-04-28T12:21:39;1.90;;;1.77;;
209;SDS011;90;48.810;9.120;2023-04-28T12:24:15;1.80;;;1.70;;
209;SDS011;90;48.810;9.120;2023-04-28T12:26:44;2.50;;;1.90;;
209;SDS011;90;48.810;9.120;2023-04-28T12:32:01;2.10;;;1.90;;
209;SDS011;90;48.810;9.120;2023-04-28T12:34:30;4.37;;;2.90;;
209;SDS011;90;48.810;9.120;2023-04-28T12:36:57;2.00;;;1.80;;
209;SDS011;90;48.810;9.120;2023-04-28T12:39:24;2.67;;;2.47;;
209;SDS011;90;48.810;9.120;2023-04-28T12:41:51;2.03;;;1.77;;
209;SDS011;90;48.810;9.120;2023-04-28T12:44:19;3.53;;;3.23;;
209;SDS011;90;48.810;9.120;2023-04-28T12:46:46;3.00;;;2.80;;
209;SDS011;90;48.810;9.120;2023-04-28T12:49:13;4.50;;;2.67;;
209;SDS011;90;48.810;9.120;2023-04-28T12:51:41;2.77;;;2.57;;
209;SDS011;90;48.810;9.120;2023-04-28T12:54:08;3.60;;;3.40;;
209;SDS011;90;48.810;9.120;2023-04-28T12:56:35;2.80;;;2.60;;
209;SDS011;90;48.810;9.120;2023-04-28T12:59:01;3.13;;;2.93;;
209;SDS011;90;48.810;9.120;2023-04-28T13:01:30;25.00;;;13.87;;
209;SDS011;90;48.810;9.120;2023-04-28T13:03:57;15.30;;;9.73;;
209;SDS011;90;48.810;9.120;2023-04-28T13:06:23;6.80;;;5.30;;
209;SDS011;90;48.810;9.120;2023-04-28T13:08:53;4.03;;;3.83;;
209;SDS011;90;48.810;9.120;2023-04-28T13:11:20;3.47;;;3.27;;
209;SDS011;90;48.810;9.120;2023-04-28T13:13:51;3.60;;;3.40;;
209;SDS011;90;48.810;9.120;2023-04-28T13:16:17;3.50;;;3.13;;
209;SDS011;90;48.810;9.120;2023-04-28T13:18:44;3.60;;;3.40;;
209;SDS011;90;48.810;9.120;2023-04-28T13:21:12;3.23;;;3.03;;
209;SDS011;90;48.810;9.120;2023-04-28T13:23:39;3.83;;;3.20;;
209;SDS011;90;48.810;9.120;2023-04-28T13:26:08;3.80;;;3.10;;
209;SDS011;90;48.810;9.120;2023-04-28T13:28:35;2.60;;;2.40;;
209;SDS011;90;48.810;9.120;2023-04-28T13:31:01;3.30;;;3.10;;
209;SDS011;90;48.810;9.120;2023-04-28T13:33:28;3.43;;;3.23;;
209;SDS011;90;48.810;9.120;2023-04-28T13:35:56;2.70;;;2.50;;
209;SDS011;90;48.810;9.120;2023-04-28T13:38:23;3.00;;;2.53;;
209;SDS011;90;48.810;9.120;2023-04-28T13:40:50;3.83;;;3.10;;
209;SDS011;90;48.810;9.120;2023-04-28T13:43:18;3.13;;;2.97;;
209;SDS011;90;48.810;9.120;2023-04-28T13:45:45;3.07;;;2.90;;
209;SDS011;90;48.810;9.120;2023-04-28T13:48:12;3.20;;;3.00;;
209;SDS011;90;48.810;9.120;2023-04-28T13:50:39;3.30;;;3.10;;
209;SDS011;90;48.810;9.120;2023-04-28T13:53:06;3.47;;;3.20;;
209;SDS011;90;48.810;9.120;2023-04-28T13:55:33;3.60;;;3.40;;
209;SDS011;90;48.810;9.120;2023-04-28T13:58:00;3.80;;;3.60;;
209;SDS011;90;48.810;9.120;2023-04-28T14:00:30;2.90;;;2.70;;
209;SDS011;90;48.810;9.120;2023-04-28T14:02:57;13.63;;;9.23;;
209;SDS011;90;48.810;9.120;2023-04-28T14:05:27;16.47;;;11.23;;
209;SDS011;90;48.810;9.120;2023-04-28T14:07:54;66.43;;;34.87;;
209;SDS011;90;48.810;9.120;2023-04-28T14:10:21;28.00;;;16.03;;
209;SDS011;90;48.810;9.120;2023-04-28T14:12:48;7.83;;;4.70;;
209;SDS011;90;48.810;9.120;2023-04-28T14:15:14;3.90;;;3.70;;
209;SDS011;90;48.810;9.120;2023-04-28T14:17:43;3.57;;;3.37;;
209;SDS011;90;48.810;9.120;2023-04-28T14:20:10;3.10;;;2.90;;
209;SDS011;90;48.810;9.120;2023-04-28T14:22:37;3.60;;;3.40;;
209;SDS011;90;48.810;9.120;2023-04-28T14:25:04;3.40;;;3.20;;
209;SDS011;90;48.810;9.120;2023-04-28T14:27:32;2.90;;;2.70;;
209;SDS011;90;48.810;9.120;2023-04-28T14:29:58;3.53;;;3.33;;
209;SDS011;90;48.810;9.120;2023-04-28T14:32:25;3.50;;;3.33;;
209;SDS011;90;48.810;9.120;2023-04-28T14:34:53;3.33;;;3.13;;
209;SDS011;90;48.810;9.120;2023-04-28T14:37:20;3.40;;;3.30;;
209;SDS011;90;48.810;9.120;2023-04-28T14:39:47;3.70;;;3.50;;
209;SDS011;90;48.810;9.120;2023-04-28T14:42:14;4.47;;;2.88;;
209;SDS011;90;48.810;9.120;2023-04-28T14:44:41;4.60;;;2.90;;
209;SDS011;90;48.810;9.120;2023-04-28T14:47:09;5.00;;;2.97;;
209;SDS011;90;48.810;9.120;2023-04-28T14:49:36;3.30;;;3.10;;
209;SDS011;90;48.810;9.120;2023-04-28T14:52:04;2.43;;;2.23;;
209;SDS011;90;48.810;9.120;2023-04-28T14:54:31;2.50;;;2.30;;
209;SDS011;90;48.810;9.120;2023-04-28T14:56:58;2.47;;;2.27;;
209;SDS011;90;48.810;9.120;2023-04-28T14:59:24;2.63;;;2.23;;
209;SDS011;90;48.810;9.120;2023-04-28T15:01:52;2.70;;;2.50;;
209;SDS011;90;48.810;9.120;2023-04-28T15:04:19;2.33;;;2.20;;
209;SDS011;90;48.810;9.120;2023-04-28T15:06:45;2.87;;;1.90;;
209;SDS011;90;48.810;9.120;2023-04-28T15:09:14;2.77;;;2.03;;
209;SDS011;90;48.810;9.120;2023-04-28T15:11:40;8.70;;;2.10;;
209;SDS011;90;48.810;9.120;2023-04-28T15:14:07;2.30;;;1.90;;
209;SDS011;90;48.810;9.120;2023-04-28T15:16:34;2.20;;;2.00;;
209;SDS011;90;48.810;9.120;2023-04-28T15:19:00;3.63;;;1.90;;
209;SDS011;90;48.810;9.120;2023-04-28T15:21:27;4.93;;;1.90;;
209;SDS011;90;48.810;9.120;2023-04-28T15:23:55;2.20;;;2.00;;
209;SDS011;90;48.810;9.120;2023-04-28T15:26:24;3.17;;;2.10;;
209;SDS011;90;48.810;9.120;2023-04-28T15:28:52;1.80;;;1.60;;
209;SDS011;90;48.810;9.120;2023-04-28T15:31:19;3.07;;;2.00;;
209;SDS011;90;48.810;9.120;2023-04-28T15:33:47;3.03;;;1.80;;
209;SDS011;90;48.810;9.120;2023-04-28T15:36:14;3.53;;;1.90;;
209;SDS011;90;48.810;9.120;2023-04-28T15:38:42;1.90;;;1.50;;
209;SDS011;90;48.810;9.120;2023-04-28T15:41:09;1.83;;;1.70;;
209;SDS011;90;48.810;9.120;2023-04-28T15:43:37;3.07;;;2.07;;
209;SDS011;90;48.810;9.120;2023-04-28T15:46:04;2.10;;;1.57;;
209;SDS011;90;48.810;9.120;2023-04-28T15:48:33;2.43;;;1.90;;
209;SDS011;90;48.810;9.120;2023-04-28T15:50:59;2.83;;;2.63;;
209;SDS011;90;48.810;9.120;2023-04-28T15:53:26;2.23;;;2.07;;
209;SDS011;90;48.810;9.120;2023-04-28T15:55:53;3.40;;;1.90;;
209;SDS011;90;48.810;9.120;2023-04-28T15:58:21;2.70;;;2.40;;
209;SDS011;90;48.810;9.120;2023-04-28T16:00:49;1.90;;;1.77;;
209;SDS011;90;48.810;9.120;2023-04-28T16:03:16;2.27;;;2.07;;
209;SDS011;90;48.810;9.120;2023-04-28T16:05:43;3.50;;;3.00;;
209;SDS011;90;48.810;9.120;2023-04-28T16:08:10;2.77;;;2.57;;
209;SDS011;90;48.810;9.120;2023-04-28T16:10:38;9.10;;;2.20;;
209;SDS011;90;48.810;9.120;2023-04-28T16:13:06;2.30;;;1.53;;
209;SDS011;90;48.810;9.120;2023-04-28T16:15:35;2.67;;;2.47;;